sensor_id;sensor_type;location;lat;lon;timestamp;temperature;humidity
12700;DHT22;6414;49.570;6.060;2023-10-09T00:00:59;12.90;99.90
12700;DHT22;6414;49.570;6.060;2023-10-09T00:03:45;13.00;99.90
12700;DHT22;6414;49.570;6.060;2023-10-09T00:06:31;13.10;99.90
12700;DHT22;6414;49.570;6.060;2023-10-09T00:09:18;13.10;99.90
12700;DHT22;6414;49.570;6.060;2023-10-09T00:12:09;13.10;99.90
12700;DHT22;6414;49.570;6.060;2023-10-09T00:14:56;13.10;99.90
12700;DHT22;6414;49.570;6.060;2023-10-09T00:17:42;13.00;99.90
12700;DHT22;6414;49.570;6.060;2023-10-09T00:20:28;12.60;99.90
12700;DHT22;6414;49.570;6.060;2023-10-09T00:23:14;12.50;99.90
12700;DHT22;6414;49.570;6.060;2023-10-09T00:26:00;12.40;99.90
12700;DHT22;6414;49.570;6.060;2023-10-09T00:29:04;12.50;99.90
12700;DHT22;6414;49.570;6.060;2023-10-09T00:31:51;12.60;99.90
12700;DHT22;6414;49.570;6.060;2023-10-09T00:34:36;12.70;99.90
12700;DHT22;6414;49.570;6.060;2023-10-09T00:37:23;12.80;99.90
12700;DHT22;6414;49.570;6.060;2023-10-09T00:40:09;12.90;99.90
12700;DHT22;6414;49.570;6.060;2023-10-09T00:42:55;12.90;99.90
12700;DHT22;6414;49.570;6.060;2023-10-09T00:45:42;12.90;99.90
12700;DHT22;6414;49.570;6.060;2023-10-09T00:48:28;13.00;99.90
12700;DHT22;6414;49.570;6.060;2023-10-09T00:51:16;12.90;99.90
12700;DHT22;6414;49.570;6.060;2023-10-09T00:54:02;13.00;99.90
12700;DHT22;6414;49.570;6.060;2023-10-09T00:56:53;13.10;99.90
12700;DHT22;6414;49.570;6.060;2023-10-09T00:59:40;13.10;99.90
12700;DHT22;6414;49.570;6.060;2023-10-09T01:02:26;13.10;99.90
12700;DHT22;6414;49.570;6.060;2023-10-09T01:05:12;13.40;99.90
12700;DHT22;6414;49.570;6.060;2023-10-09T01:07:58;13.50;99.90
12700;DHT22;6414;49.570;6.060;2023-10-09T01:10:46;13.50;99.90
12700;DHT22;6414;49.570;6.060;2023-10-09T01:13:39;13.50;99.90
12700;DHT22;6414;49.570;6.060;2023-10-09T01:16:36;13.60;99.90
12700;DHT22;6414;49.570;6.060;2023-10-09T01:19:22;13.60;99.90
12700;DHT22;6414;49.570;6.060;2023-10-09T01:22:10;13.50;99.90
12700;DHT22;6414;49.570;6.060;2023-10-09T01:24:58;13.60;99.90
12700;DHT22;6414;49.570;6.060;2023-10-09T01:27:45;13.50;99.90
12700;DHT22;6414;49.570;6.060;2023-10-09T01:30:31;13.20;99.90
12700;DHT22;6414;49.570;6.060;2023-10-09T01:33:17;13.20;99.90
12700;DHT22;6414;49.570;6.060;2023-10-09T01:36:09;13.30;99.90
12700;DHT22;6414;49.570;6.060;2023-10-09T01:38:55;13.30;99.90
12700;DHT22;6414;49.570;6.060;2023-10-09T01:41:41;13.30;99.90
12700;DHT22;6414;49.570;6.060;2023-10-09T01:44:28;13.20;99.90
12700;DHT22;6414;49.570;6.060;2023-10-09T01:47:13;13.20;99.90
12700;DHT22;6414;49.570;6.060;2023-10-09T01:50:00;13.20;99.90
12700;DHT22;6414;49.570;6.060;2023-10-09T01:52:46;13.10;99.90
12700;DHT22;6414;49.570;6.060;2023-10-09T01:55:34;13.20;99.90
12700;DHT22;6414;49.570;6.060;2023-10-09T01:58:25;13.20;99.90
12700;DHT22;6414;49.570;6.060;2023-10-09T02:01:11;13.10;99.90
12700;DHT22;6414;49.570;6.060;2023-10-09T02:03:58;13.20;99.90
12700;DHT22;6414;49.570;6.060;2023-10-09T02:06:44;13.10;99.90
12700;DHT22;6414;49.570;6.060;2023-10-09T02:09:30;13.10;99.90
12700;DHT22;6414;49.570;6.060;2023-10-09T02:12:16;13.00;99.90
12700;DHT22;6414;49.570;6.060;2023-10-09T02:15:03;13.00;99.90
12700;DHT22;6414;49.570;6.060;2023-10-09T02:17:49;13.00;99.90
12700;DHT22;6414;49.570;6.060;2023-10-09T02:20:37;13.00;99.90
12700;DHT22;6414;49.570;6.060;2023-10-09T02:23:23;13.00;99.90
12700;DHT22;6414;49.570;6.060;2023-10-09T02:26:10;13.10;99.90
12700;DHT22;6414;49.570;6.060;2023-10-09T02:28:56;13.10;99.90
12700;DHT22;6414;49.570;6.060;2023-10-09T02:31:45;12.90;99.90
12700;DHT22;6414;49.570;6.060;2023-10-09T02:34:34;12.90;99.90
12700;DHT22;6414;49.570;6.060;2023-10-09T02:37:20;12.80;99.90
12700;DHT22;6414;49.570;6.060;2023-10-09T02:40:06;12.80;99.90
12700;DHT22;6414;49.570;6.060;2023-10-09T02:42:52;12.70;99.90
12700;DHT22;6414;49.570;6.060;2023-10-09T02:45:38;12.60;99.90
12700;DHT22;6414;49.570;6.060;2023-10-09T02:48:24;12.60;99.90
12700;DHT22;6414;49.570;6.060;2023-10-09T02:51:11;12.40;99.90
12700;DHT22;6414;49.570;6.060;2023-10-09T02:54:08;12.20;99.90
12700;DHT22;6414;49.570;6.060;2023-10-09T02:57:09;12.20;99.90
12700;DHT22;6414;49.570;6.060;2023-10-09T02:59:55;12.20;99.90
12700;DHT22;6414;49.570;6.060;2023-10-09T03:02:41;12.40;99.90
12700;DHT22;6414;49.570;6.060;2023-10-09T03:05:27;12.60;99.90
12700;DHT22;6414;49.570;6.060;2023-10-09T03:08:13;12.60;99.90
12700;DHT22;6414;49.570;6.060;2023-10-09T03:11:00;12.80;99.90
12700;DHT22;6414;49.570;6.060;2023-10-09T03:13:46;13.10;99.90
12700;DHT22;6414;49.570;6.060;2023-10-09T03:16:32;13.20;99.90
12700;DHT22;6414;49.570;6.060;2023-10-09T03:19:18;13.40;99.90
12700;DHT22;6414;49.570;6.060;2023-10-09T03:22:05;13.10;99.90
12700;DHT22;6414;49.570;6.060;2023-10-09T03:24:50;13.10;99.90
12700;DHT22;6414;49.570;6.060;2023-10-09T03:27:38;13.20;99.90
12700;DHT22;6414;49.570;6.060;2023-10-09T03:30:23;13.40;99.90
12700;DHT22;6414;49.570;6.060;2023-10-09T03:33:09;13.70;99.90
12700;DHT22;6414;49.570;6.060;2023-10-09T03:35:55;13.90;99.90
12700;DHT22;6414;49.570;6.060;2023-10-09T03:38:41;14.10;99.90
12700;DHT22;6414;49.570;6.060;2023-10-09T03:41:27;14.20;99.90
12700;DHT22;6414;49.570;6.060;2023-10-09T03:44:14;14.40;99.90
12700;DHT22;6414;49.570;6.060;2023-10-09T03:46:59;14.40;99.90
12700;DHT22;6414;49.570;6.060;2023-10-09T03:49:45;14.10;99.90
12700;DHT22;6414;49.570;6.060;2023-10-09T03:52:31;13.80;99.90
12700;DHT22;6414;49.570;6.060;2023-10-09T03:55:18;12.50;99.90
12700;DHT22;6414;49.570;6.060;2023-10-09T03:58:05;12.50;99.90
12700;DHT22;6414;49.570;6.060;2023-10-09T04:00:50;12.70;99.90
12700;DHT22;6414;49.570;6.060;2023-10-09T04:03:36;12.90;99.90
12700;DHT22;6414;49.570;6.060;2023-10-09T04:06:22;13.10;99.90
12700;DHT22;6414;49.570;6.060;2023-10-09T04:09:10;13.10;99.90
12700;DHT22;6414;49.570;6.060;2023-10-09T04:11:59;13.10;99.90
12700;DHT22;6414;49.570;6.060;2023-10-09T04:14:56;13.20;99.90
12700;DHT22;6414;49.570;6.060;2023-10-09T04:17:44;13.30;99.90
12700;DHT22;6414;49.570;6.060;2023-10-09T04:20:35;13.40;99.90
12700;DHT22;6414;49.570;6.060;2023-10-09T04:23:34;13.30;99.90
12700;DHT22;6414;49.570;6.060;2023-10-09T04:26:20;13.20;99.90
12700;DHT22;6414;49.570;6.060;2023-10-09T04:29:06;13.20;99.90
12700;DHT22;6414;49.570;6.060;2023-10-09T04:31:53;13.30;99.90
12700;DHT22;6414;49.570;6.060;2023-10-09T04:34:38;13.20;99.90
12700;DHT22;6414;49.570;6.060;2023-10-09T04:37:24;13.10;99.90
12700;DHT22;6414;49.570;6.060;2023-10-09T04:40:10;13.10;99.90
12700;DHT22;6414;49.570;6.060;2023-10-09T04:42:56;13.00;99.90
12700;DHT22;6414;49.570;6.060;2023-10-09T04:45:47;13.00;99.90
12700;DHT22;6414;49.570;6.060;2023-10-09T04:48:50;13.00;99.90
12700;DHT22;6414;49.570;6.060;2023-10-09T04:51:37;12.90;99.90
12700;DHT22;6414;49.570;6.060;2023-10-09T04:54:24;12.70;99.90
12700;DHT22;6414;49.570;6.060;2023-10-09T04:57:10;12.70;99.90
12700;DHT22;6414;49.570;6.060;2023-10-09T04:59:56;12.80;99.90
12700;DHT22;6414;49.570;6.060;2023-10-09T05:02:43;12.90;99.90
12700;DHT22;6414;49.570;6.060;2023-10-09T05:05:29;13.00;99.90
12700;DHT22;6414;49.570;6.060;2023-10-09T05:08:28;13.10;99.90
12700;DHT22;6414;49.570;6.060;2023-10-09T05:11:14;13.10;99.90
12700;DHT22;6414;49.570;6.060;2023-10-09T05:14:19;13.10;99.90
12700;DHT22;6414;49.570;6.060;2023-10-09T05:17:07;13.20;99.90
12700;DHT22;6414;49.570;6.060;2023-10-09T05:19:50;13.10;99.90
12700;DHT22;6414;49.570;6.060;2023-10-09T05:22:42;13.20;99.90
12700;DHT22;6414;49.570;6.060;2023-10-09T05:25:28;13.10;99.90
12700;DHT22;6414;49.570;6.060;2023-10-09T05:28:33;13.20;99.90
12700;DHT22;6414;49.570;6.060;2023-10-09T05:31:19;13.40;99.90
12700;DHT22;6414;49.570;6.060;2023-10-09T05:34:24;13.50;99.90
12700;DHT22;6414;49.570;6.060;2023-10-09T05:37:09;13.50;99.90
12700;DHT22;6414;49.570;6.060;2023-10-09T05:40:10;13.50;99.90
12700;DHT22;6414;49.570;6.060;2023-10-09T05:43:02;13.60;99.90
12700;DHT22;6414;49.570;6.060;2023-10-09T05:45:48;13.50;99.90
12700;DHT22;6414;49.570;6.060;2023-10-09T05:48:53;13.50;99.90
12700;DHT22;6414;49.570;6.060;2023-10-09T05:51:39;13.50;99.90
12700;DHT22;6414;49.570;6.060;2023-10-09T05:54:28;13.50;99.90
12700;DHT22;6414;49.570;6.060;2023-10-09T05:57:33;13.40;99.90
12700;DHT22;6414;49.570;6.060;2023-10-09T06:00:27;13.40;99.90
12700;DHT22;6414;49.570;6.060;2023-10-09T06:03:32;13.30;99.90
12700;DHT22;6414;49.570;6.060;2023-10-09T06:06:23;13.20;99.90
12700;DHT22;6414;49.570;6.060;2023-10-09T06:09:21;13.20;99.90
12700;DHT22;6414;49.570;6.060;2023-10-09T06:12:06;13.30;99.90
12700;DHT22;6414;49.570;6.060;2023-10-09T06:15:04;13.10;99.90
12700;DHT22;6414;49.570;6.060;2023-10-09T06:18:06;13.20;99.90
12700;DHT22;6414;49.570;6.060;2023-10-09T06:20:55;13.20;99.90
12700;DHT22;6414;49.570;6.060;2023-10-09T06:23:46;13.20;99.90
12700;DHT22;6414;49.570;6.060;2023-10-09T06:26:47;13.30;99.90
12700;DHT22;6414;49.570;6.060;2023-10-09T06:29:45;13.20;99.90
12700;DHT22;6414;49.570;6.060;2023-10-09T06:32:31;13.30;99.90
12700;DHT22;6414;49.570;6.060;2023-10-09T06:35:17;13.30;99.90
12700;DHT22;6414;49.570;6.060;2023-10-09T06:38:08;13.30;99.90
12700;DHT22;6414;49.570;6.060;2023-10-09T06:41:09;13.20;99.90
12700;DHT22;6414;49.570;6.060;2023-10-09T06:44:04;13.30;99.90
12700;DHT22;6414;49.570;6.060;2023-10-09T06:46:51;13.50;99.90
12700;DHT22;6414;49.570;6.060;2023-10-09T06:49:37;13.50;99.90
12700;DHT22;6414;49.570;6.060;2023-10-09T06:52:23;13.60;99.90
12700;DHT22;6414;49.570;6.060;2023-10-09T06:55:09;13.60;99.90
12700;DHT22;6414;49.570;6.060;2023-10-09T06:57:55;13.70;99.90
12700;DHT22;6414;49.570;6.060;2023-10-09T07:00:43;13.80;99.90
12700;DHT22;6414;49.570;6.060;2023-10-09T07:03:45;14.00;99.90
12700;DHT22;6414;49.570;6.060;2023-10-09T07:06:31;14.00;99.90
12700;DHT22;6414;49.570;6.060;2023-10-09T07:09:23;13.90;99.90
12700;DHT22;6414;49.570;6.060;2023-10-09T07:12:10;13.60;99.90
12700;DHT22;6414;49.570;6.060;2023-10-09T07:14:56;13.60;99.90
12700;DHT22;6414;49.570;6.060;2023-10-09T07:17:46;13.40;99.90
12700;DHT22;6414;49.570;6.060;2023-10-09T07:20:33;13.40;99.90
12700;DHT22;6414;49.570;6.060;2023-10-09T07:23:24;13.60;99.90
12700;DHT22;6414;49.570;6.060;2023-10-09T07:26:10;13.80;99.90
12700;DHT22;6414;49.570;6.060;2023-10-09T07:29:05;14.00;99.90
12700;DHT22;6414;49.570;6.060;2023-10-09T07:31:57;14.20;99.90
12700;DHT22;6414;49.570;6.060;2023-10-09T07:34:43;14.40;99.90
12700;DHT22;6414;49.570;6.060;2023-10-09T07:37:29;14.50;99.90
12700;DHT22;6414;49.570;6.060;2023-10-09T07:40:18;14.70;99.90
12700;DHT22;6414;49.570;6.060;2023-10-09T07:43:04;14.80;99.90
12700;DHT22;6414;49.570;6.060;2023-10-09T07:45:50;15.00;99.90
12700;DHT22;6414;49.570;6.060;2023-10-09T07:48:36;15.20;99.90
12700;DHT22;6414;49.570;6.060;2023-10-09T07:51:25;15.30;99.90
12700;DHT22;6414;49.570;6.060;2023-10-09T07:54:13;15.20;99.90
12700;DHT22;6414;49.570;6.060;2023-10-09T07:57:02;15.20;99.90
12700;DHT22;6414;49.570;6.060;2023-10-09T07:59:48;15.30;99.90
12700;DHT22;6414;49.570;6.060;2023-10-09T08:02:49;15.30;99.90
12700;DHT22;6414;49.570;6.060;2023-10-09T08:06:35;15.50;99.90
12700;DHT22;6414;49.570;6.060;2023-10-09T08:09:22;15.50;99.90
12700;DHT22;6414;49.570;6.060;2023-10-09T08:12:09;15.50;99.90
12700;DHT22;6414;49.570;6.060;2023-10-09T08:15:14;15.50;99.90
12700;DHT22;6414;49.570;6.060;2023-10-09T08:18:05;15.50;99.90
12700;DHT22;6414;49.570;6.060;2023-10-09T08:20:57;15.70;99.90
12700;DHT22;6414;49.570;6.060;2023-10-09T08:23:42;15.90;99.90
12700;DHT22;6414;49.570;6.060;2023-10-09T08:26:34;16.00;99.90
12700;DHT22;6414;49.570;6.060;2023-10-09T08:29:20;16.00;99.90
12700;DHT22;6414;49.570;6.060;2023-10-09T08:32:06;16.00;99.90
12700;DHT22;6414;49.570;6.060;2023-10-09T08:34:52;16.10;99.90
12700;DHT22;6414;49.570;6.060;2023-10-09T08:37:39;16.10;99.90
12700;DHT22;6414;49.570;6.060;2023-10-09T08:40:34;16.20;99.90
12700;DHT22;6414;49.570;6.060;2023-10-09T08:43:21;16.20;99.90
12700;DHT22;6414;49.570;6.060;2023-10-09T08:46:06;16.40;99.90
12700;DHT22;6414;49.570;6.060;2023-10-09T08:48:56;16.70;99.90
12700;DHT22;6414;49.570;6.060;2023-10-09T08:51:41;16.60;99.90
12700;DHT22;6414;49.570;6.060;2023-10-09T08:54:28;16.80;99.90
12700;DHT22;6414;49.570;6.060;2023-10-09T08:57:15;16.90;99.90
12700;DHT22;6414;49.570;6.060;2023-10-09T09:00:01;17.00;99.90
12700;DHT22;6414;49.570;6.060;2023-10-09T09:02:47;16.90;99.90
12700;DHT22;6414;49.570;6.060;2023-10-09T09:05:32;16.90;99.90
12700;DHT22;6414;49.570;6.060;2023-10-09T09:08:22;17.00;99.90
12700;DHT22;6414;49.570;6.060;2023-10-09T09:11:12;17.10;99.90
12700;DHT22;6414;49.570;6.060;2023-10-09T09:14:03;17.20;99.90
12700;DHT22;6414;49.570;6.060;2023-10-09T09:16:49;17.20;99.90
12700;DHT22;6414;49.570;6.060;2023-10-09T09:19:36;17.30;99.90
12700;DHT22;6414;49.570;6.060;2023-10-09T09:22:22;17.30;99.90
12700;DHT22;6414;49.570;6.060;2023-10-09T09:25:08;17.50;99.90
12700;DHT22;6414;49.570;6.060;2023-10-09T09:27:54;17.80;99.90
12700;DHT22;6414;49.570;6.060;2023-10-09T09:30:42;18.40;99.90
12700;DHT22;6414;49.570;6.060;2023-10-09T09:33:28;18.30;99.90
12700;DHT22;6414;49.570;6.060;2023-10-09T09:36:26;18.20;99.90
12700;DHT22;6414;49.570;6.060;2023-10-09T09:39:12;17.90;99.90
12700;DHT22;6414;49.570;6.060;2023-10-09T09:41:59;18.10;99.90
12700;DHT22;6414;49.570;6.060;2023-10-09T09:44:45;18.10;99.90
12700;DHT22;6414;49.570;6.060;2023-10-09T09:47:33;18.20;99.90
12700;DHT22;6414;49.570;6.060;2023-10-09T09:50:19;18.80;99.90
12700;DHT22;6414;49.570;6.060;2023-10-09T09:53:15;18.40;99.90
12700;DHT22;6414;49.570;6.060;2023-10-09T09:56:03;18.40;99.90
12700;DHT22;6414;49.570;6.060;2023-10-09T09:58:51;18.60;99.90
12700;DHT22;6414;49.570;6.060;2023-10-09T10:01:39;18.60;99.90
12700;DHT22;6414;49.570;6.060;2023-10-09T10:04:26;18.60;99.90
12700;DHT22;6414;49.570;6.060;2023-10-09T10:07:12;18.90;99.90
12700;DHT22;6414;49.570;6.060;2023-10-09T10:09:58;19.00;99.90
12700;DHT22;6414;49.570;6.060;2023-10-09T10:12:50;19.20;99.90
12700;DHT22;6414;49.570;6.060;2023-10-09T10:15:58;19.50;99.90
12700;DHT22;6414;49.570;6.060;2023-10-09T10:18:53;19.60;99.90
12700;DHT22;6414;49.570;6.060;2023-10-09T10:21:39;19.70;99.90
12700;DHT22;6414;49.570;6.060;2023-10-09T10:27:15;19.70;99.90
12700;DHT22;6414;49.570;6.060;2023-10-09T10:33:04;19.70;99.90
12700;DHT22;6414;49.570;6.060;2023-10-09T10:35:55;19.80;99.90
12700;DHT22;6414;49.570;6.060;2023-10-09T10:38:41;19.90;99.90
12700;DHT22;6414;49.570;6.060;2023-10-09T10:41:30;20.00;99.90
12700;DHT22;6414;49.570;6.060;2023-10-09T10:44:38;20.20;99.90
12700;DHT22;6414;49.570;6.060;2023-10-09T10:47:08;20.30;99.90
12700;DHT22;6414;49.570;6.060;2023-10-09T10:50:08;20.30;99.90
12700;DHT22;6414;49.570;6.060;2023-10-09T10:53:06;20.20;99.90
12700;DHT22;6414;49.570;6.060;2023-10-09T10:55:58;20.30;99.90
12700;DHT22;6414;49.570;6.060;2023-10-09T10:58:41;20.40;99.90
12700;DHT22;6414;49.570;6.060;2023-10-09T11:01:33;20.30;99.90
12700;DHT22;6414;49.570;6.060;2023-10-09T11:04:37;20.30;99.90
12700;DHT22;6414;49.570;6.060;2023-10-09T11:07:29;20.20;99.90
12700;DHT22;6414;49.570;6.060;2023-10-09T11:10:21;20.10;99.90
12700;DHT22;6414;49.570;6.060;2023-10-09T11:13:01;20.10;99.90
12700;DHT22;6414;49.570;6.060;2023-10-09T11:15:56;20.20;99.90
12700;DHT22;6414;49.570;6.060;2023-10-09T11:18:42;20.20;99.90
12700;DHT22;6414;49.570;6.060;2023-10-09T11:21:33;20.30;99.90
12700;DHT22;6414;49.570;6.060;2023-10-09T11:24:19;20.30;99.90
12700;DHT22;6414;49.570;6.060;2023-10-09T11:27:11;20.50;99.90
12700;DHT22;6414;49.570;6.060;2023-10-09T11:29:58;20.50;99.90
12700;DHT22;6414;49.570;6.060;2023-10-09T11:32:44;20.70;99.90
12700;DHT22;6414;49.570;6.060;2023-10-09T11:35:30;20.80;99.90
12700;DHT22;6414;49.570;6.060;2023-10-09T11:38:16;20.90;99.90
12700;DHT22;6414;49.570;6.060;2023-10-09T11:41:14;20.90;99.90
12700;DHT22;6414;49.570;6.060;2023-10-09T11:44:09;20.90;99.90
12700;DHT22;6414;49.570;6.060;2023-10-09T11:47:09;20.80;1.00
12700;DHT22;6414;49.570;6.060;2023-10-09T11:50:04;20.50;24.30
12700;DHT22;6414;49.570;6.060;2023-10-09T11:52:59;20.50;24.20
12700;DHT22;6414;49.570;6.060;2023-10-09T11:55:46;20.50;1.00
12700;DHT22;6414;49.570;6.060;2023-10-09T11:58:31;20.60;1.00
12700;DHT22;6414;49.570;6.060;2023-10-09T12:01:18;20.70;1.00
12700;DHT22;6414;49.570;6.060;2023-10-09T12:04:04;20.90;99.90
12700;DHT22;6414;49.570;6.060;2023-10-09T12:06:50;21.00;99.90
12700;DHT22;6414;49.570;6.060;2023-10-09T12:09:39;21.10;1.00
12700;DHT22;6414;49.570;6.060;2023-10-09T12:12:26;21.20;1.00
12700;DHT22;6414;49.570;6.060;2023-10-09T12:15:12;21.20;1.00
12700;DHT22;6414;49.570;6.060;2023-10-09T12:17:58;21.30;1.00
12700;DHT22;6414;49.570;6.060;2023-10-09T12:20:45;21.30;99.90
12700;DHT22;6414;49.570;6.060;2023-10-09T12:23:31;21.40;99.90
12700;DHT22;6414;49.570;6.060;2023-10-09T12:26:19;21.30;99.90
12700;DHT22;6414;49.570;6.060;2023-10-09T12:29:06;21.30;1.00
12700;DHT22;6414;49.570;6.060;2023-10-09T12:31:54;21.30;99.90
12700;DHT22;6414;49.570;6.060;2023-10-09T12:34:41;21.30;99.90
12700;DHT22;6414;49.570;6.060;2023-10-09T12:37:26;21.30;99.90
12700;DHT22;6414;49.570;6.060;2023-10-09T12:40:12;21.30;1.00
12700;DHT22;6414;49.570;6.060;2023-10-09T12:42:59;21.20;1.00
12700;DHT22;6414;49.570;6.060;2023-10-09T12:45:45;21.10;1.00
12700;DHT22;6414;49.570;6.060;2023-10-09T12:48:31;21.10;1.00
12700;DHT22;6414;49.570;6.060;2023-10-09T12:51:18;21.20;1.00
12700;DHT22;6414;49.570;6.060;2023-10-09T12:54:04;21.30;99.90
12700;DHT22;6414;49.570;6.060;2023-10-09T12:56:49;21.40;1.00
12700;DHT22;6414;49.570;6.060;2023-10-09T12:59:35;21.40;1.00
12700;DHT22;6414;49.570;6.060;2023-10-09T13:02:21;21.40;99.90
12700;DHT22;6414;49.570;6.060;2023-10-09T13:05:16;21.30;99.90
12700;DHT22;6414;49.570;6.060;2023-10-09T13:08:02;21.40;99.90
12700;DHT22;6414;49.570;6.060;2023-10-09T13:10:49;21.40;99.90
12700;DHT22;6414;49.570;6.060;2023-10-09T13:13:34;21.50;99.90
12700;DHT22;6414;49.570;6.060;2023-10-09T13:16:26;21.30;1.00
12700;DHT22;6414;49.570;6.060;2023-10-09T13:19:12;21.10;1.00
12700;DHT22;6414;49.570;6.060;2023-10-09T13:21:58;21.10;1.00
12700;DHT22;6414;49.570;6.060;2023-10-09T13:24:44;21.00;1.00
12700;DHT22;6414;49.570;6.060;2023-10-09T13:27:30;20.90;1.00
12700;DHT22;6414;49.570;6.060;2023-10-09T13:30:19;21.10;99.90
12700;DHT22;6414;49.570;6.060;2023-10-09T13:33:06;21.00;1.00
12700;DHT22;6414;49.570;6.060;2023-10-09T13:35:51;21.00;1.00
12700;DHT22;6414;49.570;6.060;2023-10-09T13:38:38;21.00;1.00
12700;DHT22;6414;49.570;6.060;2023-10-09T13:41:24;21.00;1.00
12700;DHT22;6414;49.570;6.060;2023-10-09T13:44:10;21.30;1.00
12700;DHT22;6414;49.570;6.060;2023-10-09T13:46:57;21.40;1.00
12700;DHT22;6414;49.570;6.060;2023-10-09T13:49:43;21.20;1.00
12700;DHT22;6414;49.570;6.060;2023-10-09T13:52:29;21.00;1.00
12700;DHT22;6414;49.570;6.060;2023-10-09T13:55:15;21.00;1.00
12700;DHT22;6414;49.570;6.060;2023-10-09T13:58:01;21.00;1.00
12700;DHT22;6414;49.570;6.060;2023-10-09T14:00:47;20.80;99.90
12700;DHT22;6414;49.570;6.060;2023-10-09T14:03:33;20.80;1.00
12700;DHT22;6414;49.570;6.060;2023-10-09T14:06:19;20.80;99.90
12700;DHT22;6414;49.570;6.060;2023-10-09T14:09:05;20.80;1.00
12700;DHT22;6414;49.570;6.060;2023-10-09T14:11:51;20.60;1.00
12700;DHT22;6414;49.570;6.060;2023-10-09T14:14:41;20.60;1.00
12700;DHT22;6414;49.570;6.060;2023-10-09T14:17:27;20.60;1.00
12700;DHT22;6414;49.570;6.060;2023-10-09T14:20:13;20.70;1.00
12700;DHT22;6414;49.570;6.060;2023-10-09T14:23:14;20.60;26.50
12700;DHT22;6414;49.570;6.060;2023-10-09T14:26:00;20.60;25.70
12700;DHT22;6414;49.570;6.060;2023-10-09T14:28:47;20.60;99.90
12700;DHT22;6414;49.570;6.060;2023-10-09T14:31:33;20.50;99.90
12700;DHT22;6414;49.570;6.060;2023-10-09T14:34:19;20.40;99.90
12700;DHT22;6414;49.570;6.060;2023-10-09T14:37:05;20.40;99.90
12700;DHT22;6414;49.570;6.060;2023-10-09T14:39:51;20.40;99.90
12700;DHT22;6414;49.570;6.060;2023-10-09T14:42:37;20.40;99.90
12700;DHT22;6414;49.570;6.060;2023-10-09T14:45:26;20.30;99.90
12700;DHT22;6414;49.570;6.060;2023-10-09T14:48:11;20.40;99.90
12700;DHT22;6414;49.570;6.060;2023-10-09T14:50:57;20.40;99.90
12700;DHT22;6414;49.570;6.060;2023-10-09T14:53:43;20.40;99.90
12700;DHT22;6414;49.570;6.060;2023-10-09T14:56:30;20.40;99.90
12700;DHT22;6414;49.570;6.060;2023-10-09T14:59:16;20.40;99.90
12700;DHT22;6414;49.570;6.060;2023-10-09T15:02:02;20.40;99.90
12700;DHT22;6414;49.570;6.060;2023-10-09T15:04:49;20.30;99.90
12700;DHT22;6414;49.570;6.060;2023-10-09T15:07:35;20.30;99.90
12700;DHT22;6414;49.570;6.060;2023-10-09T15:10:21;20.20;99.90
12700;DHT22;6414;49.570;6.060;2023-10-09T15:13:07;20.20;99.90
12700;DHT22;6414;49.570;6.060;2023-10-09T15:15:54;20.10;99.90
12700;DHT22;6414;49.570;6.060;2023-10-09T15:18:40;20.00;99.90
12700;DHT22;6414;49.570;6.060;2023-10-09T15:21:26;20.00;99.90
12700;DHT22;6414;49.570;6.060;2023-10-09T15:24:12;20.00;99.90
12700;DHT22;6414;49.570;6.060;2023-10-09T15:26:59;20.00;99.90
12700;DHT22;6414;49.570;6.060;2023-10-09T15:29:45;19.90;99.90
12700;DHT22;6414;49.570;6.060;2023-10-09T15:32:31;19.90;99.90
12700;DHT22;6414;49.570;6.060;2023-10-09T15:35:17;19.80;99.90
12700;DHT22;6414;49.570;6.060;2023-10-09T15:38:03;19.70;99.90
12700;DHT22;6414;49.570;6.060;2023-10-09T15:40:49;19.60;99.90
12700;DHT22;6414;49.570;6.060;2023-10-09T15:43:38;19.50;99.90
12700;DHT22;6414;49.570;6.060;2023-10-09T15:46:24;19.30;99.90
12700;DHT22;6414;49.570;6.060;2023-10-09T15:49:10;19.30;99.90
12700;DHT22;6414;49.570;6.060;2023-10-09T15:51:56;19.40;99.90
12700;DHT22;6414;49.570;6.060;2023-10-09T15:54:42;19.40;99.90
12700;DHT22;6414;49.570;6.060;2023-10-09T15:57:29;19.30;99.90
12700;DHT22;6414;49.570;6.060;2023-10-09T16:00:14;19.10;99.90
12700;DHT22;6414;49.570;6.060;2023-10-09T16:03:01;19.10;99.90
12700;DHT22;6414;49.570;6.060;2023-10-09T16:05:48;19.10;99.90
12700;DHT22;6414;49.570;6.060;2023-10-09T16:08:35;19.00;99.90
12700;DHT22;6414;49.570;6.060;2023-10-09T16:11:22;19.00;99.90
12700;DHT22;6414;49.570;6.060;2023-10-09T16:14:11;18.80;99.90
12700;DHT22;6414;49.570;6.060;2023-10-09T16:16:57;18.80;99.90
12700;DHT22;6414;49.570;6.060;2023-10-09T16:19:43;18.90;99.90
12700;DHT22;6414;49.570;6.060;2023-10-09T16:22:30;18.60;99.90
12700;DHT22;6414;49.570;6.060;2023-10-09T16:25:16;18.60;99.90
12700;DHT22;6414;49.570;6.060;2023-10-09T16:28:02;18.50;99.90
12700;DHT22;6414;49.570;6.060;2023-10-09T16:30:48;18.30;99.90
12700;DHT22;6414;49.570;6.060;2023-10-09T16:33:34;18.30;99.90
12700;DHT22;6414;49.570;6.060;2023-10-09T16:36:21;18.10;99.90
12700;DHT22;6414;49.570;6.060;2023-10-09T16:39:07;18.10;99.90
12700;DHT22;6414;49.570;6.060;2023-10-09T16:41:56;18.00;99.90
12700;DHT22;6414;49.570;6.060;2023-10-09T16:44:42;17.90;99.90
12700;DHT22;6414;49.570;6.060;2023-10-09T16:47:28;17.80;99.90
12700;DHT22;6414;49.570;6.060;2023-10-09T16:50:14;17.70;99.90
12700;DHT22;6414;49.570;6.060;2023-10-09T16:53:03;17.60;99.90
12700;DHT22;6414;49.570;6.060;2023-10-09T16:55:49;17.70;99.90
12700;DHT22;6414;49.570;6.060;2023-10-09T16:58:38;17.70;99.90
12700;DHT22;6414;49.570;6.060;2023-10-09T17:01:21;17.60;99.90
12700;DHT22;6414;49.570;6.060;2023-10-09T17:04:07;17.60;99.90
12700;DHT22;6414;49.570;6.060;2023-10-09T17:06:53;17.40;99.90
12700;DHT22;6414;49.570;6.060;2023-10-09T17:09:40;17.20;99.90
12700;DHT22;6414;49.570;6.060;2023-10-09T17:12:26;17.00;99.90
12700;DHT22;6414;49.570;6.060;2023-10-09T17:15:13;16.90;99.90
12700;DHT22;6414;49.570;6.060;2023-10-09T17:17:59;16.90;99.90
12700;DHT22;6414;49.570;6.060;2023-10-09T17:20:45;16.90;99.90
12700;DHT22;6414;49.570;6.060;2023-10-09T17:23:31;16.80;99.90
12700;DHT22;6414;49.570;6.060;2023-10-09T17:26:17;16.80;99.90
12700;DHT22;6414;49.570;6.060;2023-10-09T17:29:06;16.80;99.90
12700;DHT22;6414;49.570;6.060;2023-10-09T17:31:52;16.60;99.90
12700;DHT22;6414;49.570;6.060;2023-10-09T17:34:38;16.40;99.90
12700;DHT22;6414;49.570;6.060;2023-10-09T17:37:24;16.40;99.90
12700;DHT22;6414;49.570;6.060;2023-10-09T17:40:11;16.40;99.90
12700;DHT22;6414;49.570;6.060;2023-10-09T17:42:57;16.40;99.90
12700;DHT22;6414;49.570;6.060;2023-10-09T17:45:43;16.50;99.90
12700;DHT22;6414;49.570;6.060;2023-10-09T17:48:29;16.50;99.90
12700;DHT22;6414;49.570;6.060;2023-10-09T17:51:16;16.40;99.90
12700;DHT22;6414;49.570;6.060;2023-10-09T17:54:02;16.40;99.90
12700;DHT22;6414;49.570;6.060;2023-10-09T17:56:48;16.40;99.90
12700;DHT22;6414;49.570;6.060;2023-10-09T17:59:34;16.30;99.90
12700;DHT22;6414;49.570;6.060;2023-10-09T18:02:20;16.20;99.90
12700;DHT22;6414;49.570;6.060;2023-10-09T18:05:07;16.00;99.90
12700;DHT22;6414;49.570;6.060;2023-10-09T18:07:54;16.00;99.90